sensor_id;sensor_type;location;lat;lon;timestamp;temperature;humidity
7174;DHT22;3628;48.654;8.932;2023-04-25T00:02:02;8.00;99.90
7174;DHT22;3628;48.654;8.932;2023-04-25T00:04:28;8.00;99.90
7174;DHT22;3628;48.654;8.932;2023-04-25T00:06:55;8.00;99.90
7174;DHT22;3628;48.654;8.932;2023-04-25T00:09:21;8.00;99.90
7174;DHT22;3628;48.654;8.932;2023-04-25T00:11:47;8.00;99.90
7174;DHT22;3628;48.654;8.932;2023-04-25T00:14:13;8.00;99.90
7174;DHT22;3628;48.654;8.932;2023-04-25T00:16:39;8.00;99.90
7174;DHT22;3628;48.654;8.932;2023-04-25T00:19:06;8.00;99.90
7174;DHT22;3628;48.654;8.932;2023-04-25T00:21:32;8.00;99.90
7174;DHT22;3628;48.654;8.932;2023-04-25T00:23:59;8.00;99.90
7174;DHT22;3628;48.654;8.932;2023-04-25T00:26:24;8.00;99.90
7174;DHT22;3628;48.654;8.932;2023-04-25T00:28:50;8.00;99.90
7174;DHT22;3628;48.654;8.932;2023-04-25T00:31:15;8.00;99.90
7174;DHT22;3628;48.654;8.932;2023-04-25T00:33:41;8.00;99.90
7174;DHT22;3628;48.654;8.932;2023-04-25T00:36:07;8.00;99.90
7174;DHT22;3628;48.654;8.932;2023-04-25T00:38:33;8.00;99.90
7174;DHT22;3628;48.654;8.932;2023-04-25T00:40:58;8.00;99.90
7174;DHT22;3628;48.654;8.932;2023-04-25T00:43:26;8.00;99.90
7174;DHT22;3628;48.654;8.932;2023-04-25T00:45:52;7.90;99.90
7174;DHT22;3628;48.654;8.932;2023-04-25T00:48:19;7.90;99.90
7174;DHT22;3628;48.654;8.932;2023-04-25T00:50:57;7.90;99.90
7174;DHT22;3628;48.654;8.932;2023-04-25T00:53:25;8.00;99.90
7174;DHT22;3628;48.654;8.932;2023-04-25T00:55:51;8.00;99.90
7174;DHT22;3628;48.654;8.932;2023-04-25T00:58:21;7.90;99.90
7174;DHT22;3628;48.654;8.932;2023-04-25T01:00:49;7.90;99.90
7174;DHT22;3628;48.654;8.932;2023-04-25T01:03:15;7.90;99.90
7174;DHT22;3628;48.654;8.932;2023-04-25T01:05:47;7.80;99.90
7174;DHT22;3628;48.654;8.932;2023-04-25T01:08:13;7.80;99.90
7174;DHT22;3628;48.654;8.932;2023-04-25T01:10:39;7.70;99.90
7174;DHT22;3628;48.654;8.932;2023-04-25T01:13:06;7.50;99.90
7174;DHT22;3628;48.654;8.932;2023-04-25T01:15:32;7.40;99.90
7174;DHT22;3628;48.654;8.932;2023-04-25T01:17:58;7.40;99.90
7174;DHT22;3628;48.654;8.932;2023-04-25T01:20:24;7.40;99.90
7174;DHT22;3628;48.654;8.932;2023-04-25T01:22:51;7.30;99.90
7174;DHT22;3628;48.654;8.932;2023-04-25T01:25:18;7.30;99.90
7174;DHT22;3628;48.654;8.932;2023-04-25T01:27:45;7.30;99.90
7174;DHT22;3628;48.654;8.932;2023-04-25T01:30:11;7.30;99.90
7174;DHT22;3628;48.654;8.932;2023-04-25T01:32:37;7.30;99.90
7174;DHT22;3628;48.654;8.932;2023-04-25T01:35:08;7.30;99.90
7174;DHT22;3628;48.654;8.932;2023-04-25T01:37:44;7.30;99.90
7174;DHT22;3628;48.654;8.932;2023-04-25T01:40:11;7.30;99.90
7174;DHT22;3628;48.654;8.932;2023-04-25T01:42:40;7.20;99.90
7174;DHT22;3628;48.654;8.932;2023-04-25T01:45:07;7.30;99.90
7174;DHT22;3628;48.654;8.932;2023-04-25T01:47:33;7.30;99.90
7174;DHT22;3628;48.654;8.932;2023-04-25T01:50:03;7.30;99.90
7174;DHT22;3628;48.654;8.932;2023-04-25T01:52:29;7.30;99.90
7174;DHT22;3628;48.654;8.932;2023-04-25T01:54:56;7.30;99.90
7174;DHT22;3628;48.654;8.932;2023-04-25T01:57:22;7.30;99.90
7174;DHT22;3628;48.654;8.932;2023-04-25T01:59:47;7.20;99.90
7174;DHT22;3628;48.654;8.932;2023-04-25T02:02:13;7.20;99.90
7174;DHT22;3628;48.654;8.932;2023-04-25T02:04:39;7.30;99.90
7174;DHT22;3628;48.654;8.932;2023-04-25T02:07:04;7.30;99.90
7174;DHT22;3628;48.654;8.932;2023-04-25T02:09:30;7.30;99.90
7174;DHT22;3628;48.654;8.932;2023-04-25T02:11:55;7.20;99.90
7174;DHT22;3628;48.654;8.932;2023-04-25T02:14:21;7.20;99.90
7174;DHT22;3628;48.654;8.932;2023-04-25T02:16:46;7.10;99.90
7174;DHT22;3628;48.654;8.932;2023-04-25T02:19:12;7.10;99.90
7174;DHT22;3628;48.654;8.932;2023-04-25T02:21:38;7.00;99.90
7174;DHT22;3628;48.654;8.932;2023-04-25T02:24:04;7.00;99.90
7174;DHT22;3628;48.654;8.932;2023-04-25T02:26:29;7.00;99.90
7174;DHT22;3628;48.654;8.932;2023-04-25T02:28:56;7.00;99.90
7174;DHT22;3628;48.654;8.932;2023-04-25T02:31:22;6.90;99.90
7174;DHT22;3628;48.654;8.932;2023-04-25T02:33:48;6.90;99.90
7174;DHT22;3628;48.654;8.932;2023-04-25T02:36:14;6.70;99.90
7174;DHT22;3628;48.654;8.932;2023-04-25T02:38:40;6.70;99.90
7174;DHT22;3628;48.654;8.932;2023-04-25T02:41:05;6.70;99.90
7174;DHT22;3628;48.654;8.932;2023-04-25T02:43:31;6.70;99.90
7174;DHT22;3628;48.654;8.932;2023-04-25T02:45:57;6.70;99.90
7174;DHT22;3628;48.654;8.932;2023-04-25T02:48:22;6.70;99.90
7174;DHT22;3628;48.654;8.932;2023-04-25T02:50:48;6.70;99.90
7174;DHT22;3628;48.654;8.932;2023-04-25T02:53:13;6.70;99.90
7174;DHT22;3628;48.654;8.932;2023-04-25T02:55:39;6.70;99.90
7174;DHT22;3628;48.654;8.932;2023-04-25T02:58:04;6.80;99.90
7174;DHT22;3628;48.654;8.932;2023-04-25T03:00:30;6.80;99.90
7174;DHT22;3628;48.654;8.932;2023-04-25T03:02:56;6.80;99.90
7174;DHT22;3628;48.654;8.932;2023-04-25T03:05:21;6.70;99.90
7174;DHT22;3628;48.654;8.932;2023-04-25T03:07:47;6.70;99.90
7174;DHT22;3628;48.654;8.932;2023-04-25T03:10:12;6.70;99.90
7174;DHT22;3628;48.654;8.932;2023-04-25T03:12:38;6.70;99.90
7174;DHT22;3628;48.654;8.932;2023-04-25T03:15:04;6.70;99.90
7174;DHT22;3628;48.654;8.932;2023-04-25T03:17:30;6.70;99.90
7174;DHT22;3628;48.654;8.932;2023-04-25T03:19:57;6.70;99.90
7174;DHT22;3628;48.654;8.932;2023-04-25T03:22:23;6.70;99.90
7174;DHT22;3628;48.654;8.932;2023-04-25T03:24:49;6.80;99.90
7174;DHT22;3628;48.654;8.932;2023-04-25T03:27:15;6.80;99.90
7174;DHT22;3628;48.654;8.932;2023-04-25T03:29:40;6.80;99.90
7174;DHT22;3628;48.654;8.932;2023-04-25T03:32:06;6.80;99.90
7174;DHT22;3628;48.654;8.932;2023-04-25T03:34:32;6.80;99.90
7174;DHT22;3628;48.654;8.932;2023-04-25T03:36:57;6.80;99.90
7174;DHT22;3628;48.654;8.932;2023-04-25T03:39:23;6.70;99.90
7174;DHT22;3628;48.654;8.932;2023-04-25T03:41:48;6.70;99.90
7174;DHT22;3628;48.654;8.932;2023-04-25T03:44:14;6.60;99.90
7174;DHT22;3628;48.654;8.932;2023-04-25T03:46:40;6.50;99.90
7174;DHT22;3628;48.654;8.932;2023-04-25T03:49:05;6.40;99.90
7174;DHT22;3628;48.654;8.932;2023-04-25T03:51:31;6.40;99.90
7174;DHT22;3628;48.654;8.932;2023-04-25T03:53:56;6.30;99.90
7174;DHT22;3628;48.654;8.932;2023-04-25T03:56:23;6.20;99.90
7174;DHT22;3628;48.654;8.932;2023-04-25T03:58:49;6.20;99.90
7174;DHT22;3628;48.654;8.932;2023-04-25T04:01:14;6.20;99.90
7174;DHT22;3628;48.654;8.932;2023-04-25T04:03:40;6.20;99.90
7174;DHT22;3628;48.654;8.932;2023-04-25T04:06:06;6.20;99.90
7174;DHT22;3628;48.654;8.932;2023-04-25T04:08:33;6.20;99.90
7174;DHT22;3628;48.654;8.932;2023-04-25T04:10:59;6.20;99.90
7174;DHT22;3628;48.654;8.932;2023-04-25T04:13:28;6.10;99.90
7174;DHT22;3628;48.654;8.932;2023-04-25T04:15:54;6.10;99.90
7174;DHT22;3628;48.654;8.932;2023-04-25T04:18:19;6.00;99.90
7174;DHT22;3628;48.654;8.932;2023-04-25T04:20:45;5.90;99.90
7174;DHT22;3628;48.654;8.932;2023-04-25T04:23:11;5.80;99.90
7174;DHT22;3628;48.654;8.932;2023-04-25T04:25:37;5.80;99.90
7174;DHT22;3628;48.654;8.932;2023-04-25T04:28:03;5.80;99.90
7174;DHT22;3628;48.654;8.932;2023-04-25T04:30:29;5.70;99.90
7174;DHT22;3628;48.654;8.932;2023-04-25T04:32:55;5.70;99.90
7174;DHT22;3628;48.654;8.932;2023-04-25T04:35:21;5.70;99.90
7174;DHT22;3628;48.654;8.932;2023-04-25T04:37:47;5.70;99.90
7174;DHT22;3628;48.654;8.932;2023-04-25T04:40:14;5.80;99.90
7174;DHT22;3628;48.654;8.932;2023-04-25T04:42:41;5.90;99.90
7174;DHT22;3628;48.654;8.932;2023-04-25T04:45:07;6.00;99.90
7174;DHT22;3628;48.654;8.932;2023-04-25T04:47:33;6.10;99.90
7174;DHT22;3628;48.654;8.932;2023-04-25T04:49:59;6.20;99.90
7174;DHT22;3628;48.654;8.932;2023-04-25T04:52:25;6.20;99.90
7174;DHT22;3628;48.654;8.932;2023-04-25T04:54:50;6.30;99.90
7174;DHT22;3628;48.654;8.932;2023-04-25T04:57:16;6.40;99.90
7174;DHT22;3628;48.654;8.932;2023-04-25T04:59:42;6.50;99.90
7174;DHT22;3628;48.654;8.932;2023-04-25T05:02:07;6.60;99.90
7174;DHT22;3628;48.654;8.932;2023-04-25T05:04:33;6.70;99.90
7174;DHT22;3628;48.654;8.932;2023-04-25T05:06:58;6.80;99.90
7174;DHT22;3628;48.654;8.932;2023-04-25T05:09:24;6.80;99.90
7174;DHT22;3628;48.654;8.932;2023-04-25T05:11:51;6.90;99.90
7174;DHT22;3628;48.654;8.932;2023-04-25T05:14:17;7.00;99.90
7174;DHT22;3628;48.654;8.932;2023-04-25T05:16:43;7.00;99.90
7174;DHT22;3628;48.654;8.932;2023-04-25T05:19:09;7.10;99.90
7174;DHT22;3628;48.654;8.932;2023-04-25T05:21:35;7.10;99.90
7174;DHT22;3628;48.654;8.932;2023-04-25T05:24:01;7.10;99.90
7174;DHT22;3628;48.654;8.932;2023-04-25T05:26:26;7.10;99.90
7174;DHT22;3628;48.654;8.932;2023-04-25T05:28:56;7.10;99.90
7174;DHT22;3628;48.654;8.932;2023-04-25T05:31:22;7.10;99.90
7174;DHT22;3628;48.654;8.932;2023-04-25T05:33:48;7.20;99.90
7174;DHT22;3628;48.654;8.932;2023-04-25T05:36:13;7.30;99.90
7174;DHT22;3628;48.654;8.932;2023-04-25T05:38:39;7.30;99.90
7174;DHT22;3628;48.654;8.932;2023-04-25T05:41:04;7.40;99.90
7174;DHT22;3628;48.654;8.932;2023-04-25T05:43:30;7.40;99.90
7174;DHT22;3628;48.654;8.932;2023-04-25T05:45:55;7.50;99.90
7174;DHT22;3628;48.654;8.932;2023-04-25T05:48:21;7.60;99.90
7174;DHT22;3628;48.654;8.932;2023-04-25T05:50:47;7.70;99.90
7174;DHT22;3628;48.654;8.932;2023-04-25T05:53:12;7.80;99.90
7174;DHT22;3628;48.654;8.932;2023-04-25T05:55:38;7.90;99.90
7174;DHT22;3628;48.654;8.932;2023-04-25T05:58:05;8.00;99.90
7174;DHT22;3628;48.654;8.932;2023-04-25T06:00:30;8.00;99.90
7174;DHT22;3628;48.654;8.932;2023-04-25T06:02:56;8.10;99.90
7174;DHT22;3628;48.654;8.932;2023-04-25T06:05:21;8.10;99.90
7174;DHT22;3628;48.654;8.932;2023-04-25T06:07:47;8.20;99.90
7174;DHT22;3628;48.654;8.932;2023-04-25T06:10:12;8.40;99.90
7174;DHT22;3628;48.654;8.932;2023-04-25T06:12:38;8.40;99.90
7174;DHT22;3628;48.654;8.932;2023-04-25T06:15:05;8.50;99.90
7174;DHT22;3628;48.654;8.932;2023-04-25T06:17:30;8.60;99.90
7174;DHT22;3628;48.654;8.932;2023-04-25T06:19:56;8.70;99.90
7174;DHT22;3628;48.654;8.932;2023-04-25T06:22:21;8.70;99.90
7174;DHT22;3628;48.654;8.932;2023-04-25T06:24:47;8.70;99.90
7174;DHT22;3628;48.654;8.932;2023-04-25T06:27:12;8.80;99.90
7174;DHT22;3628;48.654;8.932;2023-04-25T06:29:38;8.80;99.90
7174;DHT22;3628;48.654;8.932;2023-04-25T06:32:04;8.80;99.90
7174;DHT22;3628;48.654;8.932;2023-04-25T06:34:29;8.70;99.90
7174;DHT22;3628;48.654;8.932;2023-04-25T06:36:55;8.70;99.90
7174;DHT22;3628;48.654;8.932;2023-04-25T06:39:21;8.60;99.90
7174;DHT22;3628;48.654;8.932;2023-04-25T06:41:48;8.40;99.90
7174;DHT22;3628;48.654;8.932;2023-04-25T06:44:14;8.20;99.90
7174;DHT22;3628;48.654;8.932;2023-04-25T06:46:40;8.10;99.90
7174;DHT22;3628;48.654;8.932;2023-04-25T06:49:06;8.10;99.90
7174;DHT22;3628;48.654;8.932;2023-04-25T06:51:31;8.00;99.90
7174;DHT22;3628;48.654;8.932;2023-04-25T06:53:57;8.00;99.90
7174;DHT22;3628;48.654;8.932;2023-04-25T06:56:23;8.00;99.90
7174;DHT22;3628;48.654;8.932;2023-04-25T06:58:49;7.90;99.90
7174;DHT22;3628;48.654;8.932;2023-04-25T07:01:14;8.00;99.90
7174;DHT22;3628;48.654;8.932;2023-04-25T07:03:40;7.90;99.90
7174;DHT22;3628;48.654;8.932;2023-04-25T07:06:06;8.00;99.90
7174;DHT22;3628;48.654;8.932;2023-04-25T07:08:31;8.00;99.90
7174;DHT22;3628;48.654;8.932;2023-04-25T07:10:57;7.90;99.90
7174;DHT22;3628;48.654;8.932;2023-04-25T07:13:22;7.90;99.90
7174;DHT22;3628;48.654;8.932;2023-04-25T07:15:48;7.80;99.90
7174;DHT22;3628;48.654;8.932;2023-04-25T07:18:14;7.70;99.90
7174;DHT22;3628;48.654;8.932;2023-04-25T07:20:39;7.80;99.90
7174;DHT22;3628;48.654;8.932;2023-04-25T07:23:05;7.90;99.90
7174;DHT22;3628;48.654;8.932;2023-04-25T07:25:31;7.90;99.90
7174;DHT22;3628;48.654;8.932;2023-04-25T07:27:56;7.90;99.90
7174;DHT22;3628;48.654;8.932;2023-04-25T07:30:22;7.90;99.90
7174;DHT22;3628;48.654;8.932;2023-04-25T07:32:51;7.90;99.90
7174;DHT22;3628;48.654;8.932;2023-04-25T07:35:17;7.90;99.90
7174;DHT22;3628;48.654;8.932;2023-04-25T07:37:42;7.90;99.90
7174;DHT22;3628;48.654;8.932;2023-04-25T07:40:08;7.90;99.90
7174;DHT22;3628;48.654;8.932;2023-04-25T07:42:35;7.90;99.90
7174;DHT22;3628;48.654;8.932;2023-04-25T07:45:00;7.80;99.90
7174;DHT22;3628;48.654;8.932;2023-04-25T07:47:26;7.80;99.90
7174;DHT22;3628;48.654;8.932;2023-04-25T07:49:55;7.80;99.90
7174;DHT22;3628;48.654;8.932;2023-04-25T07:52:21;7.80;99.90
7174;DHT22;3628;48.654;8.932;2023-04-25T07:54:47;7.90;99.90
7174;DHT22;3628;48.654;8.932;2023-04-25T07:57:13;7.90;99.90
7174;DHT22;3628;48.654;8.932;2023-04-25T07:59:41;7.90;99.90
7174;DHT22;3628;48.654;8.932;2023-04-25T08:02:07;7.90;99.90
7174;DHT22;3628;48.654;8.932;2023-04-25T08:04:32;7.80;99.90
7174;DHT22;3628;48.654;8.932;2023-04-25T08:06:58;7.90;99.90
7174;DHT22;3628;48.654;8.932;2023-04-25T08:09:23;7.90;99.90
7174;DHT22;3628;48.654;8.932;2023-04-25T08:11:50;7.90;99.90
7174;DHT22;3628;48.654;8.932;2023-04-25T08:14:18;7.90;99.90
7174;DHT22;3628;48.654;8.932;2023-04-25T08:16:44;7.80;99.90
7174;DHT22;3628;48.654;8.932;2023-04-25T08:19:10;7.70;99.90
7174;DHT22;3628;48.654;8.932;2023-04-25T08:21:36;7.70;99.90
7174;DHT22;3628;48.654;8.932;2023-04-25T08:24:01;7.60;99.90
7174;DHT22;3628;48.654;8.932;2023-04-25T08:26:28;7.60;99.90
7174;DHT22;3628;48.654;8.932;2023-04-25T08:28:56;7.60;99.90
7174;DHT22;3628;48.654;8.932;2023-04-25T08:31:21;7.60;99.90
7174;DHT22;3628;48.654;8.932;2023-04-25T08:33:47;7.50;99.90
7174;DHT22;3628;48.654;8.932;2023-04-25T08:36:13;7.50;99.90
7174;DHT22;3628;48.654;8.932;2023-04-25T08:38:38;7.40;99.90
7174;DHT22;3628;48.654;8.932;2023-04-25T08:41:05;7.40;99.90
7174;DHT22;3628;48.654;8.932;2023-04-25T08:43:32;7.40;99.90
7174;DHT22;3628;48.654;8.932;2023-04-25T08:45:59;7.40;99.90
7174;DHT22;3628;48.654;8.932;2023-04-25T08:48:27;7.40;99.90
7174;DHT22;3628;48.654;8.932;2023-04-25T08:50:55;7.40;99.90
7174;DHT22;3628;48.654;8.932;2023-04-25T08:53:29;7.30;99.90
7174;DHT22;3628;48.654;8.932;2023-04-25T08:55:56;7.30;99.90
7174;DHT22;3628;48.654;8.932;2023-04-25T08:58:23;7.30;99.90
7174;DHT22;3628;48.654;8.932;2023-04-25T09:00:49;7.30;99.90
7174;DHT22;3628;48.654;8.932;2023-04-25T09:03:15;7.20;99.90
7174;DHT22;3628;48.654;8.932;2023-04-25T09:05:41;7.20;99.90
7174;DHT22;3628;48.654;8.932;2023-04-25T09:08:08;7.20;99.90
7174;DHT22;3628;48.654;8.932;2023-04-25T09:10:34;7.20;99.90
7174;DHT22;3628;48.654;8.932;2023-04-25T09:13:09;7.20;99.90
7174;DHT22;3628;48.654;8.932;2023-04-25T09:18:24;7.20;99.90
7174;DHT22;3628;48.654;8.932;2023-04-25T09:20:54;7.20;99.90
7174;DHT22;3628;48.654;8.932;2023-04-25T09:23:21;7.10;99.90
7174;DHT22;3628;48.654;8.932;2023-04-25T09:25:49;7.00;99.90
7174;DHT22;3628;48.654;8.932;2023-04-25T09:28:15;6.90;99.90
7174;DHT22;3628;48.654;8.932;2023-04-25T09:30:41;6.80;99.90
7174;DHT22;3628;48.654;8.932;2023-04-25T09:33:08;6.70;99.90
7174;DHT22;3628;48.654;8.932;2023-04-25T09:35:39;6.70;99.90
7174;DHT22;3628;48.654;8.932;2023-04-25T09:38:13;6.60;99.90
7174;DHT22;3628;48.654;8.932;2023-04-25T09:40:40;6.60;99.90
7174;DHT22;3628;48.654;8.932;2023-04-25T09:43:09;6.60;99.90
7174;DHT22;3628;48.654;8.932;2023-04-25T09:45:41;6.50;99.90
7174;DHT22;3628;48.654;8.932;2023-04-25T09:48:11;6.50;99.90
7174;DHT22;3628;48.654;8.932;2023-04-25T09:50:37;6.50;99.90
7174;DHT22;3628;48.654;8.932;2023-04-25T09:53:06;6.40;99.90
7174;DHT22;3628;48.654;8.932;2023-04-25T09:55:34;6.40;99.90
7174;DHT22;3628;48.654;8.932;2023-04-25T09:58:04;6.50;99.90
7174;DHT22;3628;48.654;8.932;2023-04-25T10:00:33;6.60;99.90
7174;DHT22;3628;48.654;8.932;2023-04-25T10:03:03;6.70;99.90
7174;DHT22;3628;48.654;8.932;2023-04-25T10:05:32;6.80;99.90
7174;DHT22;3628;48.654;8.932;2023-04-25T10:08:02;6.70;99.90
7174;DHT22;3628;48.654;8.932;2023-04-25T10:10:30;6.80;99.90
7174;DHT22;3628;48.654;8.932;2023-04-25T10:12:58;6.90;99.90
7174;DHT22;3628;48.654;8.932;2023-04-25T10:15:24;6.90;99.90
7174;DHT22;3628;48.654;8.932;2023-04-25T10:17:50;6.90;99.90
7174;DHT22;3628;48.654;8.932;2023-04-25T10:20:16;7.00;99.90
7174;DHT22;3628;48.654;8.932;2023-04-25T10:22:44;6.90;99.90
7174;DHT22;3628;48.654;8.932;2023-04-25T10:25:10;6.90;99.90
7174;DHT22;3628;48.654;8.932;2023-04-25T10:27:36;7.00;99.90
7174;DHT22;3628;48.654;8.932;2023-04-25T10:30:07;7.00;99.90
7174;DHT22;3628;48.654;8.932;2023-04-25T10:32:35;7.10;99.90
7174;DHT22;3628;48.654;8.932;2023-04-25T10:35:30;7.10;99.90
7174;DHT22;3628;48.654;8.932;2023-04-25T10:38:03;7.30;99.90
7174;DHT22;3628;48.654;8.932;2023-04-25T10:40:31;7.40;99.90
7174;DHT22;3628;48.654;8.932;2023-04-25T10:46:23;7.60;99.90
7174;DHT22;3628;48.654;8.932;2023-04-25T10:48:56;7.60;99.90
7174;DHT22;3628;48.654;8.932;2023-04-25T10:51:27;7.60;99.90
7174;DHT22;3628;48.654;8.932;2023-04-25T10:56:23;7.70;99.90
7174;DHT22;3628;48.654;8.932;2023-04-25T10:58:50;7.60;99.90
7174;DHT22;3628;48.654;8.932;2023-04-25T11:01:21;7.80;99.90
7174;DHT22;3628;48.654;8.932;2023-04-25T11:03:47;8.00;99.90
7174;DHT22;3628;48.654;8.932;2023-04-25T11:06:41;8.10;99.90
7174;DHT22;3628;48.654;8.932;2023-04-25T11:09:12;8.10;99.90
7174;DHT22;3628;48.654;8.932;2023-04-25T11:11:38;8.10;99.90
7174;DHT22;3628;48.654;8.932;2023-04-25T11:14:04;8.20;99.90
7174;DHT22;3628;48.654;8.932;2023-04-25T11:16:29;8.20;99.90
7174;DHT22;3628;48.654;8.932;2023-04-25T11:18:58;8.30;99.90
7174;DHT22;3628;48.654;8.932;2023-04-25T11:21:24;8.30;99.90
7174;DHT22;3628;48.654;8.932;2023-04-25T11:23:51;8.30;99.90
7174;DHT22;3628;48.654;8.932;2023-04-25T11:26:19;8.40;99.90
7174;DHT22;3628;48.654;8.932;2023-04-25T11:28:45;8.60;99.90
7174;DHT22;3628;48.654;8.932;2023-04-25T11:31:12;8.70;99.90
7174;DHT22;3628;48.654;8.932;2023-04-25T11:33:37;8.80;99.90
7174;DHT22;3628;48.654;8.932;2023-04-25T11:36:03;8.90;99.90
7174;DHT22;3628;48.654;8.932;2023-04-25T11:38:29;8.80;99.90
7174;DHT22;3628;48.654;8.932;2023-04-25T11:40:55;8.50;99.90
7174;DHT22;3628;48.654;8.932;2023-04-25T11:43:21;8.00;99.90
7174;DHT22;3628;48.654;8.932;2023-04-25T11:45:50;7.60;99.90
7174;DHT22;3628;48.654;8.932;2023-04-25T11:48:17;7.40;99.90
7174;DHT22;3628;48.654;8.932;2023-04-25T11:50:43;7.20;99.90
7174;DHT22;3628;48.654;8.932;2023-04-25T11:53:08;7.00;99.90
7174;DHT22;3628;48.654;8.932;2023-04-25T11:55:35;6.90;99.90
7174;DHT22;3628;48.654;8.932;2023-04-25T11:58:01;6.90;99.90
7174;DHT22;3628;48.654;8.932;2023-04-25T12:00:28;7.00;99.90
7174;DHT22;3628;48.654;8.932;2023-04-25T12:02:55;7.00;99.90
7174;DHT22;3628;48.654;8.932;2023-04-25T12:05:27;7.10;99.90
7174;DHT22;3628;48.654;8.932;2023-04-25T12:07:54;7.00;99.90
7174;DHT22;3628;48.654;8.932;2023-04-25T12:10:19;7.10;99.90
7174;DHT22;3628;48.654;8.932;2023-04-25T12:12:47;7.20;99.90
7174;DHT22;3628;48.654;8.932;2023-04-25T12:17:40;7.10;99.90
7174;DHT22;3628;48.654;8.932;2023-04-25T12:20:10;7.20;99.90
7174;DHT22;3628;48.654;8.932;2023-04-25T12:22:37;7.20;99.90
7174;DHT22;3628;48.654;8.932;2023-04-25T12:25:04;7.30;99.90
7174;DHT22;3628;48.654;8.932;2023-04-25T12:27:31;7.30;99.90
7174;DHT22;3628;48.654;8.932;2023-04-25T12:29:58;7.40;99.90
7174;DHT22;3628;48.654;8.932;2023-04-25T12:32:24;7.40;99.90
7174;DHT22;3628;48.654;8.932;2023-04-25T12:34:50;7.40;99.90
7174;DHT22;3628;48.654;8.932;2023-04-25T12:37:15;7.40;99.90
7174;DHT22;3628;48.654;8.932;2023-04-25T12:39:41;7.40;99.90
7174;DHT22;3628;48.654;8.932;2023-04-25T12:42:07;7.50;99.90
7174;DHT22;3628;48.654;8.932;2023-04-25T12:44:38;7.60;99.90
7174;DHT22;3628;48.654;8.932;2023-04-25T12:47:04;7.60;99.90
7174;DHT22;3628;48.654;8.932;2023-04-25T12:49:30;7.90;99.90
7174;DHT22;3628;48.654;8.932;2023-04-25T12:51:57;7.90;99.90
7174;DHT22;3628;48.654;8.932;2023-04-25T12:54:22;8.20;99.90
7174;DHT22;3628;48.654;8.932;2023-04-25T12:56:48;8.50;99.90
7174;DHT22;3628;48.654;8.932;2023-04-25T12:59:15;8.70;99.90
7174;DHT22;3628;48.654;8.932;2023-04-25T13:01:41;8.90;99.90
7174;DHT22;3628;48.654;8.932;2023-04-25T13:04:06;9.00;99.90
7174;DHT22;3628;48.654;8.932;2023-04-25T13:06:32;9.20;99.90
7174;DHT22;3628;48.654;8.932;2023-04-25T13:08:57;9.50;99.90
7174;DHT22;3628;48.654;8.932;2023-04-25T13:11:23;9.60;99.90
7174;DHT22;3628;48.654;8.932;2023-04-25T13:13:49;9.70;99.90
7174;DHT22;3628;48.654;8.932;2023-04-25T13:16:14;9.90;99.90
7174;DHT22;3628;48.654;8.932;2023-04-25T13:18:40;10.20;99.90
7174;DHT22;3628;48.654;8.932;2023-04-25T13:21:06;10.30;99.90
7174;DHT22;3628;48.654;8.932;2023-04-25T13:23:32;10.40;99.90
7174;DHT22;3628;48.654;8.932;2023-04-25T13:25:58;10.50;99.90
7174;DHT22;3628;48.654;8.932;2023-04-25T13:28:24;10.50;99.90
7174;DHT22;3628;48.654;8.932;2023-04-25T13:30:50;10.70;99.90
7174;DHT22;3628;48.654;8.932;2023-04-25T13:33:17;10.80;99.90
7174;DHT22;3628;48.654;8.932;2023-04-25T13:35:43;11.10;99.90
7174;DHT22;3628;48.654;8.932;2023-04-25T13:38:08;11.30;99.90
7174;DHT22;3628;48.654;8.932;2023-04-25T13:40:34;11.40;99.90
7174;DHT22;3628;48.654;8.932;2023-04-25T13:43:01;11.50;99.90
7174;DHT22;3628;48.654;8.932;2023-04-25T13:45:26;11.50;99.90
7174;DHT22;3628;48.654;8.932;2023-04-25T13:47:52;11.60;99.90
7174;DHT22;3628;48.654;8.932;2023-04-25T13:50:17;11.60;99.90
7174;DHT22;3628;48.654;8.932;2023-04-25T13:52:43;11.20;99.90
7174;DHT22;3628;48.654;8.932;2023-04-25T13:55:09;11.20;99.90
7174;DHT22;3628;48.654;8.932;2023-04-25T13:57:35;10.90;99.90
7174;DHT22;3628;48.654;8.932;2023-04-25T14:00:02;10.70;99.90
7174;DHT22;3628;48.654;8.932;2023-04-25T14:02:37;10.50;99.90
7174;DHT22;3628;48.654;8.932;2023-04-25T14:05:04;10.30;99.90
7174;DHT22;3628;48.654;8.932;2023-04-25T14:07:30;10.10;99.90
7174;DHT22;3628;48.654;8.932;2023-04-25T14:09:55;9.90;99.90
7174;DHT22;3628;48.654;8.932;2023-04-25T14:12:22;9.90;99.90
7174;DHT22;3628;48.654;8.932;2023-04-25T14:14:48;9.80;99.90
7174;DHT22;3628;48.654;8.932;2023-04-25T14:17:14;9.80;99.90
7174;DHT22;3628;48.654;8.932;2023-04-25T14:19:39;10.00;99.90
7174;DHT22;3628;48.654;8.932;2023-04-25T14:22:08;10.00;99.90
7174;DHT22;3628;48.654;8.932;2023-04-25T14:24:34;10.20;99.90
7174;DHT22;3628;48.654;8.932;2023-04-25T14:27:00;10.50;99.90
7174;DHT22;3628;48.654;8.932;2023-04-25T14:29:26;10.50;99.90
7174;DHT22;3628;48.654;8.932;2023-04-25T14:31:52;10.60;99.90
7174;DHT22;3628;48.654;8.932;2023-04-25T14:34:18;10.80;99.90
7174;DHT22;3628;48.654;8.932;2023-04-25T14:36:44;10.70;99.90
7174;DHT22;3628;48.654;8.932;2023-04-25T14:39:10;10.80;99.90
7174;DHT22;3628;48.654;8.932;2023-04-25T14:41:35;10.90;99.90
7174;DHT22;3628;48.654;8.932;2023-04-25T14:44:01;10.80;99.90
7174;DHT22;3628;48.654;8.932;2023-04-25T14:46:26;10.80;99.90
7174;DHT22;3628;48.654;8.932;2023-04-25T14:48:52;10.90;99.90
7174;DHT22;3628;48.654;8.932;2023-04-25T14:51:18;11.00;99.90
7174;DHT22;3628;48.654;8.932;2023-04-25T14:53:43;11.10;99.90
7174;DHT22;3628;48.654;8.932;2023-04-25T14:56:09;11.10;99.90
7174;DHT22;3628;48.654;8.932;2023-04-25T14:58:35;11.20;99.90
7174;DHT22;3628;48.654;8.932;2023-04-25T15:01:00;11.40;99.90
7174;DHT22;3628;48.654;8.932;2023-04-25T15:03:26;11.60;99.90
7174;DHT22;3628;48.654;8.932;2023-04-25T15:05:54;11.70;99.90
7174;DHT22;3628;48.654;8.932;2023-04-25T15:08:20;11.70;99.90
7174;DHT22;3628;48.654;8.932;2023-04-25T15:10:46;12.00;99.90
7174;DHT22;3628;48.654;8.932;2023-04-25T15:13:12;12.10;99.90
7174;DHT22;3628;48.654;8.932;2023-04-25T15:15:37;12.10;99.90
7174;DHT22;3628;48.654;8.932;2023-04-25T15:18:03;12.30;99.90
7174;DHT22;3628;48.654;8.932;2023-04-25T15:20:28;12.50;99.90
7174;DHT22;3628;48.654;8.932;2023-04-25T15:22:55;12.70;99.90
7174;DHT22;3628;48.654;8.932;2023-04-25T15:25:20;12.90;99.90
7174;DHT22;3628;48.654;8.932;2023-04-25T15:27:46;12.80;99.90
7174;DHT22;3628;48.654;8.932;2023-04-25T15:30:14;12.90;99.90
7174;DHT22;3628;48.654;8.932;2023-04-25T15:32:41;12.70;99.90
7174;DHT22;3628;48.654;8.932;2023-04-25T15:35:07;12.80;99.90
7174;DHT22;3628;48.654;8.932;2023-04-25T15:37:34;12.60;99.90
7174;DHT22;3628;48.654;8.932;2023-04-25T15:40:02;12.40;99.90
7174;DHT22;3628;48.654;8.932;2023-04-25T15:42:44;12.30;99.90
7174;DHT22;3628;48.654;8.932;2023-04-25T15:45:16;12.00;99.90
7174;DHT22;3628;48.654;8.932;2023-04-25T15:47:42;11.90;99.90
7174;DHT22;3628;48.654;8.932;2023-04-25T15:50:10;11.80;99.90
7174;DHT22;3628;48.654;8.932;2023-04-25T15:52:36;11.80;99.90
7174;DHT22;3628;48.654;8.932;2023-04-25T15:55:03;11.60;99.90
7174;DHT22;3628;48.654;8.932;2023-04-25T15:57:35;11.40;99.90
7174;DHT22;3628;48.654;8.932;2023-04-25T16:00:02;11.20;99.90
7174;DHT22;3628;48.654;8.932;2023-04-25T16:02:36;11.00;99.90
7174;DHT22;3628;48.654;8.932;2023-04-25T16:05:02;11.00;99.90
7174;DHT22;3628;48.654;8.932;2023-04-25T16:07:28;11.10;99.90
7174;DHT22;3628;48.654;8.932;2023-04-25T16:09:54;11.10;99.90
7174;DHT22;3628;48.654;8.932;2023-04-25T16:12:20;11.10;99.90
7174;DHT22;3628;48.654;8.932;2023-04-25T16:14:46;11.00;99.90
7174;DHT22;3628;48.654;8.932;2023-04-25T16:17:11;10.90;99.90
7174;DHT22;3628;48.654;8.932;2023-04-25T16:19:37;10.80;99.90
7174;DHT22;3628;48.654;8.932;2023-04-25T16:22:03;10.70;99.90